createdAt,value
2018-07-03T00:01:47.437Z,66.21
2018-07-03T00:04:15.896Z,66.86
2018-07-03T00:06:44.849Z,67.52
2018-07-03T00:09:13.361Z,67.79
2018-07-03T00:11:41.784Z,68.04
2018-07-03T00:14:09.881Z,68.52
2018-07-03T00:16:44.005Z,68.43
2018-07-03T00:19:12.429Z,68.93
2018-07-03T00:21:40.761Z,69.31
2018-07-03T00:24:09.401Z,69.19
2018-07-03T00:26:37.585Z,69.70
2018-07-03T00:29:05.721Z,70.61
2018-07-03T00:31:33.824Z,70.45
2018-07-03T00:34:02.302Z,69.73
2018-07-03T00:36:30.546Z,69.63
2018-07-03T00:38:58.868Z,70.12
2018-07-03T00:41:26.961Z,70.38
2018-07-03T00:43:55.517Z,70.29
2018-07-03T00:46:23.860Z,70.50
2018-07-03T00:48:53.179Z,70.78
2018-07-03T00:51:22.120Z,70.40
2018-07-03T00:53:50.745Z,70.48
2018-07-03T00:56:19.201Z,70.50
2018-07-03T00:58:48.100Z,70.68
2018-07-03T01:01:16.757Z,70.17
2018-07-03T01:03:45.188Z,70.72
2018-07-03T01:06:13.921Z,71.28
2018-07-03T01:08:42.881Z,71.26
2018-07-03T01:11:10.989Z,71.09
2018-07-03T01:13:39.433Z,71.56
2018-07-03T01:16:07.811Z,71.87
2018-07-03T01:18:36.248Z,71.96
2018-07-03T01:21:04.977Z,72.23
2018-07-03T01:23:33.648Z,72.03
2018-07-03T01:26:02.657Z,71.46
2018-07-03T01:28:31.103Z,71.87
2018-07-03T01:30:59.556Z,71.82
2018-07-03T01:33:27.697Z,71.16
2018-07-03T01:35:56.509Z,71.58
2018-07-03T01:38:24.941Z,72.02
2018-07-03T01:40:53.461Z,71.58
2018-07-03T01:43:21.620Z,72.22
2018-07-03T01:45:49.769Z,72.13
2018-07-03T01:48:18.213Z,72.04
2018-07-03T01:50:46.871Z,72.29
2018-07-03T01:53:15.725Z,72.22
2018-07-03T01:55:44.213Z,72.48
2018-07-03T01:58:12.960Z,72.56
2018-07-03T02:00:41.388Z,72.80
2018-07-03T02:03:10.364Z,72.83
2018-07-03T02:05:39.009Z,72.75
2018-07-03T02:08:07.443Z,72.66
2018-07-03T02:10:36.060Z,73.12
2018-07-03T02:13:04.781Z,73.19
2018-07-03T02:15:33.461Z,73.35
2018-07-03T02:18:02.346Z,73.37
2018-07-03T02:20:31.277Z,73.65
2018-07-03T02:22:59.729Z,73.57
2018-07-03T02:25:28.181Z,73.62
2018-07-03T02:27:57.175Z,74.02
2018-07-03T02:30:25.609Z,73.77
2018-07-03T02:32:53.980Z,74.06
2018-07-03T02:35:22.438Z,74.35
2018-07-03T02:37:50.864Z,74.87
2018-07-03T02:40:19.077Z,75.18
2018-07-03T02:42:47.517Z,74.94
2018-07-03T02:45:16.197Z,74.46
2018-07-03T02:47:44.621Z,74.80
2018-07-03T02:50:12.773Z,75.44
2018-07-03T02:52:41.265Z,74.84
2018-07-03T02:55:09.728Z,75.13
2018-07-03T02:57:37.905Z,75.36
2018-07-03T03:00:06.629Z,76.23
2018-07-03T03:02:34.965Z,76.44
2018-07-03T03:05:03.227Z,76.56
2018-07-03T03:07:31.709Z,76.58
2018-07-03T03:10:00.436Z,76.65
2018-07-03T03:12:29.405Z,76.15
2018-07-03T03:14:58.529Z,76.81
2018-07-03T03:17:26.908Z,76.53
2018-07-03T03:19:55.741Z,76.81
2018-07-03T03:22:24.622Z,76.69
2018-07-03T03:24:53.598Z,76.85
2018-07-03T03:27:22.378Z,77.05
2018-07-03T03:29:51.105Z,77.06
2018-07-03T03:32:19.756Z,76.33
2018-07-03T03:34:48.373Z,76.17
2018-07-03T03:37:16.826Z,76.35
2018-07-03T03:39:45.344Z,76.78
2018-07-03T03:42:13.780Z,77.15
2018-07-03T03:44:42.545Z,76.50
2018-07-03T03:47:11.572Z,76.06
2018-07-03T03:49:39.994Z,76.30
2018-07-03T03:52:08.282Z,76.38
2018-07-03T03:54:36.387Z,76.20
2018-07-03T03:57:04.493Z,76.42
2018-07-03T03:59:33.213Z,76.05
2018-07-03T04:02:01.297Z,76.50
2018-07-03T04:04:30.136Z,75.91
2018-07-03T04:06:58.540Z,75.67
2018-07-03T04:09:26.945Z,75.34
2018-07-03T04:11:55.241Z,75.44
2018-07-03T04:14:23.577Z,76.31
2018-07-03T04:16:52.744Z,76.39
2018-07-03T04:19:21.460Z,77.38
2018-07-03T04:21:49.888Z,76.80
2018-07-03T04:24:18.413Z,77.33
2018-07-03T04:26:46.524Z,78.05
2018-07-03T04:29:14.936Z,78.57
2018-07-03T04:31:43.251Z,78.22
2018-07-03T04:34:11.539Z,77.34
2018-07-03T04:36:40.145Z,76.42
2018-07-03T04:39:09.391Z,75.94
2018-07-03T04:41:38.129Z,74.99
2018-07-03T04:44:06.800Z,74.98
2018-07-03T04:46:35.272Z,75.08
2018-07-03T04:49:03.361Z,74.56
2018-07-03T04:51:32.097Z,74.48
2018-07-03T04:54:00.814Z,73.19
2018-07-03T04:56:29.459Z,72.58
2018-07-03T04:58:57.876Z,72.09
2018-07-03T05:01:26.812Z,72.19
2018-07-03T05:03:55.530Z,71.74
2018-07-03T05:06:24.450Z,72.24
2018-07-03T05:08:53.885Z,72.14
2018-07-03T05:11:22.385Z,71.25
2018-07-03T05:13:50.882Z,70.96
2018-07-03T05:16:19.552Z,71.36
2018-07-03T05:18:48.005Z,71.11
2018-07-03T05:21:16.589Z,70.62
2018-07-03T05:23:45.047Z,71.00
2018-07-03T05:26:13.318Z,70.34
2018-07-03T05:28:42.189Z,70.85
2018-07-03T05:31:10.283Z,71.10
2018-07-03T05:33:38.713Z,70.76
2018-07-03T05:36:07.092Z,70.94
2018-07-03T05:38:35.841Z,70.06
2018-07-03T05:41:04.505Z,70.24
2018-07-03T05:43:33.188Z,70.13
2018-07-03T05:46:01.598Z,69.97
2018-07-03T05:48:29.704Z,70.39
2018-07-03T05:50:58.536Z,70.01
2018-07-03T05:53:26.805Z,69.31
2018-07-03T05:55:55.760Z,69.18
2018-07-03T05:58:24.112Z,68.60
2018-07-03T06:00:54.026Z,68.53
2018-07-03T06:03:22.644Z,67.46
2018-07-03T06:05:51.422Z,66.73
2018-07-03T06:08:19.760Z,66.81
2018-07-03T06:10:48.093Z,66.36
2018-07-03T06:13:16.591Z,66.76
2018-07-03T06:15:45.017Z,66.34
2018-07-03T06:18:13.680Z,65.62
2018-07-03T06:20:42.808Z,65.25
2018-07-03T06:23:11.825Z,65.55
2018-07-03T06:25:40.157Z,65.31
2018-07-03T06:28:08.549Z,63.85
2018-07-03T06:30:36.981Z,63.73
2018-07-03T06:33:06.034Z,63.60
2018-07-03T06:35:34.721Z,62.33
2018-07-03T06:38:03.123Z,63.06
2018-07-03T06:40:31.465Z,62.57
2018-07-03T06:43:00.026Z,61.91
2018-07-03T06:45:28.340Z,60.66
2018-07-03T06:47:57.648Z,60.67
2018-07-03T06:50:26.180Z,58.95
2018-07-03T06:52:55.482Z,60.35
2018-07-03T06:55:24.021Z,59.57
2018-07-03T06:57:53.866Z,57.53
2018-07-03T07:00:22.693Z,57.53
2018-07-03T07:02:50.915Z,56.85
2018-07-03T07:05:19.321Z,56.23
2018-07-03T07:07:47.826Z,55.45
2018-07-03T07:10:15.955Z,55.96
2018-07-03T07:12:44.412Z,56.71
2018-07-03T07:15:12.513Z,55.57
2018-07-03T07:17:41.170Z,54.89
2018-07-03T07:20:10.141Z,55.32
2018-07-03T07:22:38.808Z,55.11
2018-07-03T07:25:07.754Z,55.32
2018-07-03T07:27:36.227Z,53.96
2018-07-03T07:30:05.481Z,52.88
2018-07-03T07:32:33.929Z,53.16
2018-07-03T07:35:02.744Z,53.91
2018-07-03T07:37:30.837Z,53.65
2018-07-03T07:39:59.855Z,53.08
2018-07-03T07:42:28.273Z,52.53
2018-07-03T07:44:57.000Z,51.74
2018-07-03T07:47:25.097Z,51.37
2018-07-03T07:49:54.262Z,50.45
2018-07-03T07:52:23.127Z,49.88
2018-07-03T07:54:51.881Z,49.90
2018-07-03T07:57:20.473Z,50.05
2018-07-03T07:59:48.969Z,50.62
2018-07-03T08:02:17.405Z,49.35
2018-07-03T08:04:45.901Z,48.71
2018-07-03T08:07:14.337Z,48.77
2018-07-03T08:09:42.697Z,46.40
2018-07-03T08:12:11.397Z,47.34
2018-07-03T08:14:40.034Z,47.80
2018-07-03T08:17:09.096Z,48.42
2018-07-03T08:19:37.832Z,47.43
2018-07-03T08:22:06.381Z,48.01
2018-07-03T08:24:35.268Z,47.12
2018-07-03T08:27:03.988Z,46.87
2018-07-03T08:29:32.109Z,47.37
2018-07-03T08:32:00.541Z,46.24
2018-07-03T08:34:29.029Z,45.83
2018-07-03T08:36:57.977Z,45.15
2018-07-03T08:39:26.329Z,44.54
2018-07-03T08:41:55.045Z,44.47
2018-07-03T08:44:23.512Z,44.74
2018-07-03T08:46:51.960Z,43.75
2018-07-03T08:49:20.400Z,43.18
2018-07-03T08:51:48.753Z,43.00
2018-07-03T08:54:17.332Z,41.62
2018-07-03T08:56:46.077Z,42.31
2018-07-03T08:59:14.165Z,41.87
2018-07-03T09:01:43.001Z,40.68
2018-07-03T09:04:11.708Z,40.25
2018-07-03T09:06:40.173Z,40.68
2018-07-03T09:09:09.481Z,40.04
2018-07-03T09:11:38.228Z,39.26
2018-07-03T09:14:07.681Z,39.68
2018-07-03T09:16:36.168Z,38.78
2018-07-03T09:19:04.548Z,38.81
2018-07-03T09:21:33.292Z,38.54
2018-07-03T09:24:01.802Z,37.77
2018-07-03T09:26:30.244Z,36.50
2018-07-03T09:28:58.660Z,38.07
2018-07-03T09:31:27.213Z,36.90
2018-07-03T09:33:55.916Z,33.65
2018-07-03T09:36:24.605Z,34.20
2018-07-03T09:38:54.571Z,34.29
2018-07-03T09:41:23.128Z,35.77
2018-07-03T09:43:51.632Z,35.46
2018-07-03T09:46:20.193Z,35.78
2018-07-03T09:48:48.303Z,35.32
2018-07-03T09:51:17.308Z,34.77
2018-07-03T09:53:45.716Z,33.69
2018-07-03T09:56:14.572Z,34.29
2018-07-03T09:58:43.200Z,33.28
2018-07-03T10:01:16.940Z,34.70
2018-07-03T10:03:45.360Z,33.88
2018-07-03T10:06:14.330Z,34.75
2018-07-03T10:08:42.933Z,34.78
2018-07-03T10:11:11.041Z,33.94
2018-07-03T10:13:39.505Z,34.90
2018-07-03T10:16:08.969Z,34.45
2018-07-03T10:18:37.068Z,34.62
2018-07-03T10:21:05.694Z,34.24
2018-07-03T10:23:34.344Z,34.84
2018-07-03T10:26:02.453Z,35.77
2018-07-03T10:28:31.217Z,36.36
2018-07-03T10:31:01.062Z,36.42
2018-07-03T10:33:29.349Z,36.45
2018-07-03T10:35:57.992Z,36.52
2018-07-03T10:38:26.662Z,35.31
2018-07-03T10:40:55.055Z,34.07
2018-07-03T10:43:23.734Z,35.12
2018-07-03T10:45:52.127Z,34.12
2018-07-03T10:48:20.241Z,34.33
2018-07-03T10:50:48.622Z,34.10
2018-07-03T10:53:17.309Z,34.38
2018-07-03T10:55:45.741Z,33.66
2018-07-03T10:58:14.500Z,34.26
2018-07-03T11:00:43.160Z,33.44
2018-07-03T11:03:11.832Z,33.99
2018-07-03T11:05:40.152Z,34.08
2018-07-03T11:08:08.404Z,34.10
2018-07-03T11:10:37.069Z,32.73
2018-07-03T11:13:05.477Z,31.76
2018-07-03T11:15:33.920Z,31.67
2018-07-03T11:18:02.681Z,31.39
2018-07-03T11:20:31.498Z,30.69
2018-07-03T11:23:00.472Z,30.67
2018-07-03T11:25:29.357Z,30.20
2018-07-03T11:27:57.800Z,31.09
2018-07-03T11:30:26.376Z,31.80
2018-07-03T11:32:54.832Z,31.88
2018-07-03T11:35:23.457Z,32.12
2018-07-03T11:37:52.136Z,31.28
2018-07-03T11:40:20.531Z,31.32
2018-07-03T11:42:48.968Z,29.67
2018-07-03T11:45:17.797Z,29.39
2018-07-03T11:47:46.689Z,30.71
2018-07-03T11:50:20.392Z,28.94
2018-07-03T11:52:49.044Z,29.08
2018-07-03T11:55:17.581Z,28.60
2018-07-03T11:57:45.681Z,28.19
2018-07-03T12:00:13.769Z,28.49
2018-07-03T12:02:42.525Z,27.55
2018-07-03T12:05:10.912Z,27.29
2018-07-03T12:07:39.633Z,28.87
2018-07-03T12:10:08.485Z,28.66
2018-07-03T12:12:36.948Z,28.33
2018-07-03T12:15:05.670Z,28.35
2018-07-03T12:17:34.645Z,28.97
2018-07-03T12:20:03.042Z,28.62
2018-07-03T12:22:31.905Z,28.57
2018-07-03T12:25:01.004Z,29.29
2018-07-03T12:27:29.162Z,28.66
2018-07-03T12:29:57.736Z,29.41
2018-07-03T12:32:25.844Z,28.51
2018-07-03T12:34:54.984Z,28.35
2018-07-03T12:37:23.897Z,28.51
2018-07-03T12:39:52.300Z,29.75
2018-07-03T12:42:20.729Z,30.87
2018-07-03T12:44:49.604Z,30.06
2018-07-03T12:47:18.281Z,31.56
2018-07-03T12:49:47.205Z,30.83
2018-07-03T12:52:15.745Z,29.36
2018-07-03T12:54:44.189Z,29.17
2018-07-03T12:57:12.662Z,30.00
2018-07-03T12:59:41.111Z,29.74
2018-07-03T13:02:09.536Z,28.44
2018-07-03T13:04:37.624Z,28.49
2018-07-03T13:07:05.777Z,26.86
2018-07-03T13:09:34.133Z,28.75
2018-07-03T13:12:03.127Z,28.06
2018-07-03T13:14:31.373Z,28.61
2018-07-03T13:17:00.027Z,27.32
2018-07-03T13:19:28.533Z,29.19
2018-07-03T13:21:56.962Z,27.71
2018-07-03T13:24:25.984Z,27.67
2018-07-03T13:26:55.064Z,27.08
2018-07-03T13:29:23.880Z,29.33
2018-07-03T13:31:51.989Z,28.00
2018-07-03T13:34:20.155Z,27.91
2018-07-03T13:36:48.488Z,28.28
2018-07-03T13:39:17.146Z,27.70
2018-07-03T13:41:45.712Z,28.11
2018-07-03T13:44:14.153Z,26.86
2018-07-03T13:46:42.937Z,27.88
2018-07-03T13:49:11.910Z,26.94
2018-07-03T13:51:40.337Z,26.04
2018-07-03T13:54:08.640Z,25.98
2018-07-03T13:56:36.733Z,26.83
2018-07-03T13:59:05.593Z,26.99
2018-07-03T14:01:33.690Z,26.43
2018-07-03T14:04:02.127Z,27.06
2018-07-03T14:06:30.852Z,26.25
2018-07-03T14:08:59.764Z,26.83
2018-07-03T14:11:28.057Z,26.54
2018-07-03T14:13:57.206Z,27.62
2018-07-03T14:16:25.952Z,26.32
2018-07-03T14:18:55.342Z,26.89
2018-07-03T14:21:24.173Z,27.20
2018-07-03T14:23:52.974Z,27.60
2018-07-03T14:26:22.066Z,28.47
2018-07-03T14:28:50.832Z,28.58
2018-07-03T14:31:19.273Z,27.65
2018-07-03T14:33:47.550Z,27.45
2018-07-03T14:36:16.441Z,27.53
2018-07-03T14:38:45.065Z,26.75
2018-07-03T14:41:13.509Z,27.46
2018-07-03T14:43:42.280Z,28.47
2018-07-03T14:46:11.166Z,27.25
2018-07-03T14:48:40.124Z,28.61
2018-07-03T14:51:08.727Z,27.60
2018-07-03T14:53:37.118Z,27.35
2018-07-03T14:56:05.913Z,26.81
2018-07-03T14:58:34.392Z,27.05
2018-07-03T15:01:03.131Z,26.87
2018-07-03T15:03:31.945Z,27.99
2018-07-03T15:06:00.881Z,28.50
2018-07-03T15:08:28.985Z,26.89
2018-07-03T15:10:57.700Z,26.95
2018-07-03T15:13:26.312Z,27.30
2018-07-03T15:15:55.477Z,28.09
2018-07-03T15:18:28.060Z,29.09
2018-07-03T15:20:59.256Z,29.28
2018-07-03T15:23:27.687Z,29.04
2018-07-03T15:25:56.477Z,28.60
2018-07-03T15:28:25.137Z,27.90
2018-07-03T15:30:53.601Z,28.82
2018-07-03T15:33:21.860Z,27.98
2018-07-03T15:35:50.409Z,28.55
2018-07-03T15:38:18.501Z,27.47
2018-07-03T15:40:46.915Z,28.18
2018-07-03T15:43:15.049Z,28.12
2018-07-03T15:45:43.234Z,27.74
2018-07-03T15:48:11.457Z,27.38
2018-07-03T15:50:39.624Z,27.62
2018-07-03T15:53:08.065Z,27.71
2018-07-03T15:55:36.574Z,28.17
2018-07-03T15:58:05.092Z,28.59
2018-07-03T16:00:33.441Z,28.37
2018-07-03T16:03:13.472Z,29.27
2018-07-03T16:05:57.696Z,29.55
2018-07-03T16:08:44.152Z,29.83
2018-07-03T16:11:12.273Z,29.11
2018-07-03T16:13:40.704Z,29.69
2018-07-03T16:16:09.086Z,30.01
2018-07-03T16:18:37.546Z,30.24
2018-07-03T16:21:06.319Z,30.12
2018-07-03T16:23:34.597Z,30.57
2018-07-03T16:26:03.446Z,30.37
2018-07-03T16:28:31.549Z,29.74
2018-07-03T16:31:00.009Z,30.90
2018-07-03T16:33:28.656Z,30.99
2018-07-03T16:35:57.796Z,30.48
2018-07-03T16:38:26.409Z,31.11
2018-07-03T16:40:56.209Z,30.75
2018-07-03T16:43:24.325Z,30.73
2018-07-03T16:45:53.117Z,30.56
2018-07-03T16:48:21.533Z,30.70
2018-07-03T16:50:49.636Z,31.78
2018-07-03T16:53:17.981Z,30.76
2018-07-03T16:55:46.088Z,30.52
2018-07-03T16:58:14.517Z,32.02
2018-07-03T17:00:43.381Z,32.04
2018-07-03T17:03:13.175Z,31.45
2018-07-03T17:05:41.660Z,31.89
2018-07-03T17:08:12.820Z,31.91
2018-07-03T17:10:40.942Z,31.75
2018-07-03T17:13:09.461Z,31.82
2018-07-03T17:15:38.430Z,32.06
2018-07-03T17:18:06.565Z,32.13
2018-07-03T17:20:35.056Z,33.52
2018-07-03T17:23:03.972Z,33.63
2018-07-03T17:25:32.364Z,32.81
2018-07-03T17:28:01.909Z,33.00
2018-07-03T17:30:30.426Z,32.87
2018-07-03T17:32:58.529Z,33.05
2018-07-03T17:35:26.632Z,34.78
2018-07-03T17:37:55.789Z,37.72
2018-07-03T17:40:35.426Z,39.43
2018-07-03T17:45:16.595Z,41.21
2018-07-03T17:47:44.708Z,43.43
2018-07-03T17:50:13.761Z,44.62
2018-07-03T17:52:42.201Z,45.03
2018-07-03T17:55:10.875Z,45.50
2018-07-03T17:57:39.548Z,45.98
2018-07-03T18:00:07.652Z,45.65
2018-07-03T18:02:36.785Z,46.45
2018-07-03T18:05:05.703Z,46.55
2018-07-03T18:07:33.948Z,47.30
2018-07-03T18:10:02.677Z,46.94
2018-07-03T18:12:31.117Z,46.99
2018-07-03T18:14:59.848Z,47.62
2018-07-03T18:17:28.253Z,47.30
2018-07-03T18:19:57.220Z,47.53
2018-07-03T18:22:25.741Z,47.56
2018-07-03T18:24:55.428Z,48.87
2018-07-03T18:27:23.861Z,48.01
2018-07-03T18:29:52.593Z,49.12
2018-07-03T18:32:20.685Z,49.33
2018-07-03T18:34:48.789Z,49.33
2018-07-03T18:37:17.363Z,50.10
2018-07-03T18:39:45.840Z,50.49
2018-07-03T18:42:15.617Z,51.03
2018-07-03T18:44:44.071Z,51.57
2018-07-03T18:47:13.021Z,51.57
2018-07-03T18:49:41.454Z,51.54
2018-07-03T18:52:09.600Z,52.05
2018-07-03T18:54:38.037Z,52.09
2018-07-03T18:57:07.005Z,51.93
2018-07-03T18:59:36.049Z,52.13
2018-07-03T19:02:04.932Z,52.48
2018-07-03T19:04:33.376Z,53.61
2018-07-03T19:07:01.936Z,53.92
2018-07-03T19:09:30.261Z,53.63
2018-07-03T19:11:59.262Z,54.46
2018-07-03T19:14:27.413Z,54.88
2018-07-03T19:16:56.253Z,55.15
2018-07-03T19:19:24.739Z,54.92
2018-07-03T19:21:53.442Z,55.94
2018-07-03T19:24:22.080Z,55.73
2018-07-03T19:26:50.824Z,56.41
2018-07-03T19:29:19.290Z,56.49
2018-07-03T19:31:47.990Z,56.04
2018-07-03T19:34:16.781Z,56.58
2018-07-03T19:36:45.616Z,56.89
2018-07-03T19:39:14.609Z,57.01
2018-07-03T19:41:43.489Z,57.06
2018-07-03T19:44:12.090Z,57.07
2018-07-03T19:46:40.780Z,57.16
2018-07-03T19:49:09.206Z,57.61
2018-07-03T19:51:38.223Z,57.68
2018-07-03T19:54:06.945Z,57.88
2018-07-03T19:56:35.609Z,58.38
2018-07-03T19:59:03.929Z,58.00
2018-07-03T20:01:32.020Z,58.48
2018-07-03T20:04:00.456Z,58.78
2018-07-03T20:06:28.894Z,59.18
2018-07-03T20:08:57.627Z,59.24
2018-07-03T20:11:26.061Z,59.54
2018-07-03T20:13:56.117Z,59.86
2018-07-03T20:16:24.880Z,59.76
2018-07-03T20:18:53.385Z,60.14
2018-07-03T20:21:21.873Z,60.09
2018-07-03T20:23:50.297Z,60.56
2018-07-03T20:26:18.992Z,60.72
2018-07-03T20:28:47.348Z,60.17
2018-07-03T20:31:15.873Z,60.18
2018-07-03T20:33:44.180Z,60.47
2018-07-03T20:36:12.913Z,61.03
2018-07-03T20:38:41.365Z,60.93
2018-07-03T20:41:10.633Z,61.20
2018-07-03T20:43:39.953Z,61.75
2018-07-03T20:46:09.460Z,61.12
2018-07-03T20:48:37.889Z,61.70
2018-07-03T20:51:06.396Z,61.43
2018-07-03T20:53:34.782Z,61.66
2018-07-03T20:56:03.284Z,62.21
2018-07-03T20:58:31.958Z,62.59
2018-07-03T21:01:01.913Z,63.23
2018-07-03T21:03:30.437Z,62.48
2018-07-03T21:05:58.852Z,63.19
2018-07-03T21:08:27.124Z,63.95
2018-07-03T21:10:56.153Z,63.78
2018-07-03T21:13:24.288Z,63.57
2018-07-03T21:15:53.033Z,63.21
2018-07-03T21:18:21.133Z,63.67
2018-07-03T21:20:49.241Z,63.79
2018-07-03T21:23:17.332Z,63.70
2018-07-03T21:25:45.709Z,64.03
2018-07-03T21:28:13.808Z,64.65
2018-07-03T21:30:41.929Z,64.59
2018-07-03T21:33:10.301Z,64.37
2018-07-03T21:35:38.796Z,64.54
2018-07-03T21:38:07.596Z,65.17
2018-07-03T21:40:35.725Z,65.40
2018-07-03T21:43:04.029Z,64.92
2018-07-03T21:45:32.169Z,65.07
2018-07-03T21:48:00.629Z,65.35
2018-07-03T21:50:28.925Z,66.24
2018-07-03T21:52:57.081Z,66.01
2018-07-03T21:55:25.209Z,66.02
2018-07-03T21:57:53.356Z,66.39
2018-07-03T22:00:36.105Z,66.79
2018-07-03T22:03:05.501Z,66.50
2018-07-03T22:05:34.214Z,67.07
2018-07-03T22:08:02.877Z,66.73
2018-07-03T22:10:31.564Z,67.36
2018-07-03T22:13:00.345Z,66.51
2018-07-03T22:15:29.361Z,67.97
2018-07-03T22:17:58.437Z,68.03
2018-07-03T22:20:26.876Z,68.17
2018-07-03T22:22:56.652Z,68.34
2018-07-03T22:25:25.257Z,68.45
2018-07-03T22:27:53.877Z,68.69
2018-07-03T22:30:22.632Z,68.51
2018-07-03T22:32:51.421Z,67.77
2018-07-03T22:35:19.533Z,68.57
2018-07-03T22:37:47.925Z,69.10
2018-07-03T22:40:16.384Z,68.61
2018-07-03T22:42:45.093Z,69.14
2018-07-03T22:45:14.056Z,69.39
2018-07-03T22:47:42.505Z,69.04
2018-07-03T22:50:10.940Z,69.34
2018-07-03T22:52:39.585Z,69.20
2018-07-03T22:55:07.984Z,69.00
2018-07-03T22:57:36.414Z,69.99
2018-07-03T23:00:04.616Z,70.20
2018-07-03T23:02:33.104Z,69.79
2018-07-03T23:05:01.747Z,70.34
2018-07-03T23:07:30.353Z,70.37
2018-07-03T23:09:58.524Z,70.41
2018-07-03T23:12:26.624Z,70.09
2018-07-03T23:14:56.765Z,70.05
2018-07-03T23:17:25.400Z,71.07
2018-07-03T23:19:53.996Z,70.81
2018-07-03T23:22:22.122Z,70.67
2018-07-03T23:24:50.208Z,71.00
2018-07-03T23:27:18.316Z,70.81
2018-07-03T23:29:46.760Z,71.13
2018-07-03T23:32:15.546Z,71.45
2018-07-03T23:34:44.037Z,70.97
2018-07-03T23:37:12.885Z,71.34
2018-07-03T23:39:41.049Z,71.59
2018-07-03T23:42:09.455Z,71.71
2018-07-03T23:44:37.541Z,71.72
2018-07-03T23:47:16.989Z,72.44
2018-07-03T23:49:56.729Z,72.63
2018-07-03T23:52:36.453Z,72.55
2018-07-03T23:55:15.788Z,72.51
2018-07-03T23:57:55.413Z,73.07
